Cielo Di Savona — 3ESY5 — position and weather

sailwx.info

Track history (hours):
 
Tides and Currents Weather Stations Pressure Air Temp Water Temp Dewpoint Dewpoint Depression Visibility Wind Speed Wind Dir Waves Ship Positions

Cielo Di Savona

Last reported at 2017-Nov-11 14:13 UTC. Time now 2017-Nov-21 10:21 UTC.
Position N 24°14' W 017°25'.
Warning: this ship's position is 9 days out of date.

Length 180 m; draft 10.3 m.

Type: Cargo ship. MMSI: 370461000.

Date/timePositionNaut miles runAvg speedWind from/ knotsBaromVisibWave heightAir tempDewpointWater temp
2017-Nov-11 14:13N 24°14' W 017°25'312.7
2017-Nov-11 14:00N 24°16' W 017°25'612.6
2017-Nov-11 13:30N 24°22' W 017°23'712.6
2017-Nov-11 12:59N 24°29' W 017°21'1712.7
2017-Nov-11 11:40N 24°45' W 017°17'212.7
2017-Nov-11 11:29N 24°47' W 017°16'3812.5
2017-Nov-11 08:26N 25°24' W 017°04'7312.8
2017-Nov-11 02:45N 26°34' W 016°44'313.1
2017-Nov-11 02:30N 26°37' W 016°42'713.1
2017-Nov-11 02:00N 26°44' W 016°40'10512.8
2017-Nov-10 17:45N 28°26' W 016°13'3 9.0
2017-Nov-10 17:27N 28°29' W 016°12'1 0.8
2017-Nov-10 16:40N 28°29' W 016°13'0 0.0
2017-Nov-10 16:07N 28°29' W 016°13'0 0.0
2017-Nov-10 15:40N 28°29' W 016°13'0 0.0
2017-Nov-10 15:25N 28°29' W 016°13'0 0.0
2017-Nov-10 14:55N 28°29' W 016°13'0 0.0
2017-Nov-10 11:13N 28°29' W 016°13'8 3.8
2017-Nov-10 09:01N 28°33' W 016°04'0 6.9
2017-Nov-10 08:59N 28°33' W 016°04'611.5
2017-Nov-10 08:29N 28°37' W 015°60'612.3
2017-Nov-10 07:59N 28°41' W 015°55'912.1
2017-Nov-10 07:16N 28°48' W 015°48'312.3
2017-Nov-10 06:59N 28°50' W 015°46'712.6
2017-Nov-10 06:27N 28°55' W 015°41'612.3
2017-Nov-10 05:56N 29°00' W 015°36'512.4
2017-Nov-10 05:30N 29°04' W 015°31'712.5
2017-Nov-10 04:55N 29°09' W 015°26'512.2
2017-Nov-10 04:30N 29°14' W 015°24'612.1
2017-Nov-10 04:00N 29°20' W 015°21'612.2
2017-Nov-10 03:29N 29°26' W 015°19'712.2
2017-Nov-10 02:54N 29°32' W 015°16'512.3
2017-Nov-10 02:29N 29°37' W 015°14'612.3
2017-Nov-10 02:00N 29°43' W 015°12'612.4
2017-Nov-10 01:30N 29°49' W 015°10'612.4
2017-Nov-10 01:00N 29°54' W 015°07'612.2
2017-Nov-10 00:30N 30°00' W 015°05'612.4
2017-Nov-10 00:00N 30°06' W 015°02'712.4
2017-Nov-09 23:29N 30°12' W 014°60'612.2
2017-Nov-09 23:00N 30°18' W 014°58'  
2017-Nov-05 15:37N 49°43' W 003°50'911.6
2017-Nov-05 14:52N 49°45' W 003°37'612.7
2017-Nov-05 14:24N 49°47' W 003°28'513.6
2017-Nov-05 14:00N 49°49' W 003°20'714.5
2017-Nov-05 13:30N 49°53' W 003°11'714.5
2017-Nov-05 13:00N 49°57' W 003°02'714.0
2017-Nov-05 12:30N 49°60' W 002°51'713.6
2017-Nov-05 11:59N 50°02' W 002°41'612.7
2017-Nov-05 11:30N 50°03' W 002°32'1610.9
2017-Nov-05 10:00N 50°08' W 002°07'5 8.9
2017-Nov-05 09:27N 50°09' W 001°60'4 8.1
2017-Nov-05 08:59N 50°10' W 001°54'4 7.9
2017-Nov-05 08:31N 50°11' W 001°48'4 7.7
2017-Nov-05 08:00N 50°12' W 001°43'4 7.7
2017-Nov-05 07:31N 50°13' W 001°37'4 8.1
2017-Nov-05 07:00N 50°14' W 001°31'4 8.7
2017-Nov-05 06:31N 50°15' W 001°24'5 9.8
2017-Nov-05 05:58N 50°16' W 001°16'611.1
2017-Nov-05 05:28N 50°18' W 001°08'2613.4
2017-Nov-05 03:33N 50°25' W 000°29'113.9
2017-Nov-05 03:30N 50°25' W 000°28'713.7
2017-Nov-05 03:00N 50°27' W 000°18'713.4
2017-Nov-05 02:30N 50°29' W 000°08'713.3
2017-Nov-05 02:00N 50°30' E 000°02'713.1
2017-Nov-05 01:30N 50°32' E 000°12'612.8
2017-Nov-05 01:00N 50°34' E 000°22'612.1
2017-Nov-05 00:30N 50°35' E 000°31'611.0
2017-Nov-05 00:00N 50°37' E 000°40'611.6
2017-Nov-04 23:30N 50°40' E 000°47'611.1
2017-Nov-04 23:00N 50°43' E 000°54'510.8
2017-Nov-04 22:30N 50°46' E 001°01'510.9
2017-Nov-04 22:00N 50°50' E 001°08'611.1
2017-Nov-04 21:30N 50°54' E 001°13'612.2
2017-Nov-04 21:00N 50°59' E 001°19'713.9
2017-Nov-04 20:30N 51°04' E 001°27'815.2
2017-Nov-04 20:00N 51°08' E 001°37'815.3
2017-Nov-04 19:30N 51°14' E 001°45'714.9
2017-Nov-04 19:00N 51°20' E 001°51'713.9
2017-Nov-04 18:30N 51°26' E 001°56'713.2
2017-Nov-04 18:00N 51°31' E 002°03'612.5
2017-Nov-04 17:30N 51°36' E 002°10'612.0
2017-Nov-04 17:01N 51°40' E 002°16'8210.7
2017-Nov-04 09:23N 52°54' E 003°14'29211.8
2017-Nov-03 08:40N 57°08' E 007°26'511.7
2017-Nov-03 08:13N 57°12' E 007°32'511.8
2017-Nov-03 07:45N 57°17' E 007°38'1811.4
2017-Nov-03 06:12N 57°30' E 008°01'2011.0
2017-Nov-03 04:22N 57°38' E 008°35'2411.2
2017-Nov-03 02:14N 57°47' E 009°16'2812.3
2017-Nov-02 23:58N 57°49' E 010°09'1212.6
2017-Nov-02 23:00N 57°50' E 010°31'712.7
2017-Nov-02 22:25N 57°49' E 010°45'512.8
2017-Nov-02 22:00N 57°45' E 010°53'612.7
2017-Nov-02 21:29N 57°41' E 011°01'612.7
2017-Nov-02 21:00N 57°36' E 011°10'612.7
2017-Nov-02 20:30N 57°32' E 011°18'612.6
2017-Nov-02 20:00N 57°28' E 011°27'612.2
2017-Nov-02 19:30N 57°22' E 011°30'611.9
2017-Nov-02 19:00N 57°16' E 011°34'612.0
2017-Nov-02 18:30N 57°11' E 011°38'612.1
2017-Nov-02 18:00N 57°05' E 011°42'612.0
2017-Nov-02 17:28N 56°59' E 011°45'611.0
2017-Nov-02 16:57N 56°54' E 011°49'9610.3
2017-Nov-02 07:36N 55°21' E 011°02'410.6
2017-Nov-02 07:15N 55°17' E 011°04'310.9
2017-Nov-02 06:57N 55°14' E 011°06'510.7
2017-Nov-02 06:30N 55°10' E 011°03'611.5
2017-Nov-02 06:00N 55°04' E 011°02'510.9
2017-Nov-02 05:30N 54°59' E 010°59'611.2
2017-Nov-02 05:00N 54°55' E 010°52'611.1
2017-Nov-02 04:30N 54°49' E 010°50'611.4
2017-Nov-02 04:00N 54°44' E 010°47'4 8.2
2017-Nov-02 03:30N 54°40' E 010°49'4 8.9
2017-Nov-02 03:00N 54°38' E 010°55'5 9.7
2017-Nov-02 02:30N 54°36' E 011°03'5 9.8
2017-Nov-02 02:00N 54°36' E 011°12'5 9.7
2017-Nov-02 01:30N 54°34' E 011°19'5 9.9
2017-Nov-02 01:00N 54°32' E 011°27'510.4
2017-Nov-02 00:30N 54°30' E 011°35'510.3
2017-Nov-02 00:00N 54°28' E 011°43'510.2
2017-Nov-01 23:30N 54°27' E 011°52'510.3
2017-Nov-01 23:00N 54°27' E 012°01'510.2
2017-Nov-01 22:30N 54°27' E 012°10'5 9.9
2017-Nov-01 22:00N 54°31' E 012°13'610.5
2017-Nov-01 21:27N 54°36' E 012°18'510.2
2017-Nov-01 20:59N 54°39' E 012°24'510.6
2017-Nov-01 20:29N 54°43' E 012°32'610.6
2017-Nov-01 19:53N 54°47' E 012°40'4 9.9
2017-Nov-01 19:26N 54°50' E 012°46'  
Track history (hours):
 
Tides and Currents Weather Stations Pressure Air Temp Water Temp Dewpoint Dewpoint Depression Visibility Wind Speed Wind Dir Waves Ship Positions

Cielo Di Savona

Last reported at 2017-Nov-11 14:13 UTC. Time now 2017-Nov-21 10:21 UTC.
Position N 24°14' W 017°25'.
Warning: this ship's position is 9 days out of date.

Length 180 m; draft 10.3 m.

Type: Cargo ship. MMSI: 370461000.

Date/timePositionNaut miles runAvg speedWind from/ knotsBaromVisibWave heightAir tempDewpointWater temp
2017-Nov-11 14:13N 24°14' W 017°25'312.7
2017-Nov-11 14:00N 24°16' W 017°25'612.6
2017-Nov-11 13:30N 24°22' W 017°23'712.6
2017-Nov-11 12:59N 24°29' W 017°21'1712.7
2017-Nov-11 11:40N 24°45' W 017°17'212.7
2017-Nov-11 11:29N 24°47' W 017°16'3812.5
2017-Nov-11 08:26N 25°24' W 017°04'7312.8
2017-Nov-11 02:45N 26°34' W 016°44'313.1
2017-Nov-11 02:30N 26°37' W 016°42'713.1
2017-Nov-11 02:00N 26°44' W 016°40'10512.8
2017-Nov-10 17:45N 28°26' W 016°13'3 9.0
2017-Nov-10 17:27N 28°29' W 016°12'1 0.8
2017-Nov-10 16:40N 28°29' W 016°13'0 0.0
2017-Nov-10 16:07N 28°29' W 016°13'0 0.0
2017-Nov-10 15:40N 28°29' W 016°13'0 0.0
2017-Nov-10 15:25N 28°29' W 016°13'0 0.0
2017-Nov-10 14:55N 28°29' W 016°13'0 0.0
2017-Nov-10 11:13N 28°29' W 016°13'8 3.8
2017-Nov-10 09:01N 28°33' W 016°04'0 6.9
2017-Nov-10 08:59N 28°33' W 016°04'611.5
2017-Nov-10 08:29N 28°37' W 015°60'612.3
2017-Nov-10 07:59N 28°41' W 015°55'912.1
2017-Nov-10 07:16N 28°48' W 015°48'312.3
2017-Nov-10 06:59N 28°50' W 015°46'712.6
2017-Nov-10 06:27N 28°55' W 015°41'612.3
2017-Nov-10 05:56N 29°00' W 015°36'512.4
2017-Nov-10 05:30N 29°04' W 015°31'712.5
2017-Nov-10 04:55N 29°09' W 015°26'512.2
2017-Nov-10 04:30N 29°14' W 015°24'612.1
2017-Nov-10 04:00N 29°20' W 015°21'612.2
2017-Nov-10 03:29N 29°26' W 015°19'712.2
2017-Nov-10 02:54N 29°32' W 015°16'512.3
2017-Nov-10 02:29N 29°37' W 015°14'612.3
2017-Nov-10 02:00N 29°43' W 015°12'612.4
2017-Nov-10 01:30N 29°49' W 015°10'612.4
2017-Nov-10 01:00N 29°54' W 015°07'612.2
2017-Nov-10 00:30N 30°00' W 015°05'612.4
2017-Nov-10 00:00N 30°06' W 015°02'712.4
2017-Nov-09 23:29N 30°12' W 014°60'612.2
2017-Nov-09 23:00N 30°18' W 014°58'  
2017-Nov-05 15:37N 49°43' W 003°50'911.6
2017-Nov-05 14:52N 49°45' W 003°37'612.7
2017-Nov-05 14:24N 49°47' W 003°28'513.6
2017-Nov-05 14:00N 49°49' W 003°20'714.5
2017-Nov-05 13:30N 49°53' W 003°11'714.5
2017-Nov-05 13:00N 49°57' W 003°02'714.0
2017-Nov-05 12:30N 49°60' W 002°51'713.6
2017-Nov-05 11:59N 50°02' W 002°41'612.7
2017-Nov-05 11:30N 50°03' W 002°32'1610.9
2017-Nov-05 10:00N 50°08' W 002°07'5 8.9
2017-Nov-05 09:27N 50°09' W 001°60'4 8.1
2017-Nov-05 08:59N 50°10' W 001°54'4 7.9
2017-Nov-05 08:31N 50°11' W 001°48'4 7.7
2017-Nov-05 08:00N 50°12' W 001°43'4 7.7
2017-Nov-05 07:31N 50°13' W 001°37'4 8.1
2017-Nov-05 07:00N 50°14' W 001°31'4 8.7
2017-Nov-05 06:31N 50°15' W 001°24'5 9.8
2017-Nov-05 05:58N 50°16' W 001°16'611.1
2017-Nov-05 05:28N 50°18' W 001°08'2613.4
2017-Nov-05 03:33N 50°25' W 000°29'113.9
2017-Nov-05 03:30N 50°25' W 000°28'713.7
2017-Nov-05 03:00N 50°27' W 000°18'713.4
2017-Nov-05 02:30N 50°29' W 000°08'713.3
2017-Nov-05 02:00N 50°30' E 000°02'713.1
2017-Nov-05 01:30N 50°32' E 000°12'612.8
2017-Nov-05 01:00N 50°34' E 000°22'612.1
2017-Nov-05 00:30N 50°35' E 000°31'611.0
2017-Nov-05 00:00N 50°37' E 000°40'611.6
2017-Nov-04 23:30N 50°40' E 000°47'611.1
2017-Nov-04 23:00N 50°43' E 000°54'510.8
2017-Nov-04 22:30N 50°46' E 001°01'510.9
2017-Nov-04 22:00N 50°50' E 001°08'611.1
2017-Nov-04 21:30N 50°54' E 001°13'612.2
2017-Nov-04 21:00N 50°59' E 001°19'713.9
2017-Nov-04 20:30N 51°04' E 001°27'815.2
2017-Nov-04 20:00N 51°08' E 001°37'815.3
2017-Nov-04 19:30N 51°14' E 001°45'714.9
2017-Nov-04 19:00N 51°20' E 001°51'713.9
2017-Nov-04 18:30N 51°26' E 001°56'713.2
2017-Nov-04 18:00N 51°31' E 002°03'612.5
2017-Nov-04 17:30N 51°36' E 002°10'612.0
2017-Nov-04 17:01N 51°40' E 002°16'8210.7
2017-Nov-04 09:23N 52°54' E 003°14'29211.8
2017-Nov-03 08:40N 57°08' E 007°26'511.7
2017-Nov-03 08:13N 57°12' E 007°32'511.8
2017-Nov-03 07:45N 57°17' E 007°38'1811.4
2017-Nov-03 06:12N 57°30' E 008°01'2011.0
2017-Nov-03 04:22N 57°38' E 008°35'2411.2
2017-Nov-03 02:14N 57°47' E 009°16'2812.3
2017-Nov-02 23:58N 57°49' E 010°09'1212.6
2017-Nov-02 23:00N 57°50' E 010°31'712.7
2017-Nov-02 22:25N 57°49' E 010°45'512.8
2017-Nov-02 22:00N 57°45' E 010°53'612.7
2017-Nov-02 21:29N 57°41' E 011°01'612.7
2017-Nov-02 21:00N 57°36' E 011°10'612.7
2017-Nov-02 20:30N 57°32' E 011°18'612.6
2017-Nov-02 20:00N 57°28' E 011°27'612.2
2017-Nov-02 19:30N 57°22' E 011°30'611.9
2017-Nov-02 19:00N 57°16' E 011°34'612.0
2017-Nov-02 18:30N 57°11' E 011°38'612.1
2017-Nov-02 18:00N 57°05' E 011°42'612.0
2017-Nov-02 17:28N 56°59' E 011°45'611.0
2017-Nov-02 16:57N 56°54' E 011°49'9610.3
2017-Nov-02 07:36N 55°21' E 011°02'410.6
2017-Nov-02 07:15N 55°17' E 011°04'310.9
2017-Nov-02 06:57N 55°14' E 011°06'510.7
2017-Nov-02 06:30N 55°10' E 011°03'611.5
2017-Nov-02 06:00N 55°04' E 011°02'510.9
2017-Nov-02 05:30N 54°59' E 010°59'611.2
2017-Nov-02 05:00N 54°55' E 010°52'611.1
2017-Nov-02 04:30N 54°49' E 010°50'611.4
2017-Nov-02 04:00N 54°44' E 010°47'4 8.2
2017-Nov-02 03:30N 54°40' E 010°49'4 8.9
2017-Nov-02 03:00N 54°38' E 010°55'5 9.7
2017-Nov-02 02:30N 54°36' E 011°03'5 9.8
2017-Nov-02 02:00N 54°36' E 011°12'5 9.7
2017-Nov-02 01:30N 54°34' E 011°19'5 9.9
2017-Nov-02 01:00N 54°32' E 011°27'510.4
2017-Nov-02 00:30N 54°30' E 011°35'510.3
2017-Nov-02 00:00N 54°28' E 011°43'510.2
2017-Nov-01 23:30N 54°27' E 011°52'510.3
2017-Nov-01 23:00N 54°27' E 012°01'510.2
2017-Nov-01 22:30N 54°27' E 012°10'5 9.9
2017-Nov-01 22:00N 54°31' E 012°13'610.5
2017-Nov-01 21:27N 54°36' E 012°18'510.2
2017-Nov-01 20:59N 54°39' E 012°24'510.6
2017-Nov-01 20:29N 54°43' E 012°32'610.6
2017-Nov-01 19:53N 54°47' E 012°40'4 9.9
2017-Nov-01 19:26N 54°50' E 012°46'  

Dump ship's entire track history